Time;durP1;ratioP1;P1;durP2;ratioP2;P2;SDS_P1;SDS_P2;PMS_P1;PMS_P2;Temp;Humidity;BMP_temperature;BMP_pressure;BME280_temperature;BME280_humidity;BME280_pressure;Samples;Min_cycle;Max_cycle;Signal;HPM_P1;HPM_P2
2021/08/22 07:56:57;;;;;;;0.52;0.45;;;;;;;18.25;72.60;100931.94;1528254;25;20261;-56
2021/08/22 07:59:23;;;;;;;1.98;0.70;;;;;;;18.26;72.51;100930.94;5125579;28;20035;-57
2021/08/22 08:01:48;;;;;;;2.55;0.80;;;;;;;18.27;73.07;100937.97;5125082;28;20043;-56
2021/08/22 08:04:14;;;;;;;2.28;0.80;;;;;;;18.29;73.38;100937.78;5122307;28;20476;-56
2021/08/22 08:06:40;;;;;;;3.55;1.27;;;;;;;18.29;73.16;100940.44;5117291;28;20474;-57
2021/08/22 08:09:05;;;;;;;2.45;1.10;;;;;;;18.30;72.65;100942.13;5111254;28;20063;-56
2021/08/22 08:11:31;;;;;;;2.60;1.17;;;;;;;18.31;72.58;100946.47;5115697;28;20077;-56
2021/08/22 08:13:58;;;;;;;4.10;0.90;;;;;;;18.32;72.57;100937.41;5123476;28;20047;-56
2021/08/22 08:16:23;;;;;;;7.03;1.45;;;;;;;18.32;72.35;100946.28;5123295;28;20039;-56
2021/08/22 08:18:49;;;;;;;4.32;1.20;;;;;;;18.32;71.29;100953.47;5116249;28;20492;-56
2021/08/22 08:21:15;;;;;;;2.38;0.73;;;;;;;18.31;70.66;100957.16;5128065;28;20028;-56
2021/08/22 08:23:41;;;;;;;2.85;0.90;;;;;;;18.31;70.55;100957.16;5117144;28;20389;-58
2021/08/22 08:26:07;;;;;;;6.30;1.17;;;;;;;18.30;69.80;100968.88;5124590;28;20114;-54
2021/08/22 08:28:33;;;;;;;6.18;1.30;;;;;;;18.28;69.41;100966.41;5126811;28;20039;-54
2021/08/22 08:30:58;;;;;;;3.38;1.10;;;;;;;18.28;69.38;100960.19;5113709;28;20036;-54
2021/08/22 08:33:24;;;;;;;8.95;2.88;;;;;;;18.26;69.65;100955.03;5128323;28;20122;-54
2021/08/22 08:35:50;;;;;;;11.65;3.75;;;;;;;18.29;69.51;100964.53;5111387;28;20038;-54
2021/08/22 08:38:16;;;;;;;14.52;2.88;;;;;;;18.28;69.05;100968.22;5130158;28;20397;-54
2021/08/22 08:40:42;;;;;;;9.02;2.95;;;;;;;18.28;69.18;100962.88;5113604;28;20080;-54
2021/08/22 08:43:10;;;;;;;8.68;2.70;;;;;;;18.28;69.41;100969.06;5118350;28;20032;-54
2021/08/22 08:46:01;;;;;;;8.02;2.33;;;;;;;18.28;69.49;100968.22;5110598;28;20047;-54
2021/08/22 08:48:42;;;;;;;5.18;1.88;;;;;;;18.29;69.31;100975.22;5111491;28;20040;-54
2021/08/22 08:51:23;;;;;;;5.88;1.80;;;;;;;18.30;69.59;100979.59;5129515;27;20095;-54
2021/08/22 08:54:08;;;;;;;7.82;2.60;;;;;;;18.28;69.64;100979.78;5131311;27;20035;-54
2021/08/22 08:56:34;;;;;;;5.65;1.73;;;;;;;18.29;69.37;100985.94;5134074;27;20077;-55
2021/08/22 08:59:00;;;;;;;5.53;1.98;;;;;;;18.28;69.73;100986.97;5131289;27;20031;-54
2021/08/22 09:01:26;;;;;;;6.15;1.98;;;;;;;18.31;69.78;100992.78;5133738;27;20042;-55
2021/08/22 09:04:12;;;;;;;4.65;1.38;;;;;;;18.33;69.37;100985.38;5133502;27;20027;-54
2021/08/22 09:07:06;;;;;;;4.10;1.25;;;;;;;18.34;70.35;100992.41;5129076;27;20034;-54
2021/08/22 09:10:29;;;;;;;5.90;1.35;;;;;;;18.35;70.26;100999.44;5131024;27;20067;-54
2021/08/22 09:13:09;;;;;;;4.55;1.15;;;;;;;18.38;70.03;100992.88;5049575;28;20049;-54
2021/08/22 09:16:10;;;;;;;2.90;1.27;;;;;;;18.38;69.70;100998.22;5050703;28;20049;-54
2021/08/22 09:19:13;;;;;;;4.35;0.80;;;;;;;18.37;69.59;100998.41;5110491;27;20035;-54
2021/08/22 09:22:16;;;;;;;2.08;0.90;;;;;;;18.39;69.48;101005.25;5133850;27;20039;-54
2021/08/22 09:25:19;;;;;;;1.73;0.95;;;;;;;18.40;69.61;101012.25;5117598;27;20389;-56
2021/08/22 09:28:16;;;;;;;2.35;0.82;;;;;;;18.38;69.56;101006.25;5099602;27;20047;-54
2021/08/22 09:31:19;;;;;;;2.65;0.60;;;;;;;18.40;69.59;101011.41;5113436;28;20493;-54
2021/08/22 09:34:22;;;;;;;1.90;0.75;;;;;;;18.39;69.68;101010.59;5127979;27;20061;-54
2021/08/22 09:36:57;;;;;;;1.30;0.60;;;;;;;18.40;69.77;101020.28;5121571;27;20065;-55
2021/08/22 09:39:28;;;;;;;4.65;1.63;;;;;;;18.42;69.87;101015.59;5113895;28;20043;-56
2021/08/22 09:42:31;;;;;;;2.17;0.77;;;;;;;18.44;69.82;101026.13;5116731;27;20099;-56
2021/08/22 09:45:22;;;;;;;1.08;0.60;;;;;;;18.45;69.63;101025.94;5113434;28;20047;-55
2021/08/22 09:48:25;;;;;;;3.38;0.85;;;;;;;18.46;69.00;101027.59;5112577;28;20443;-55
2021/08/22 09:51:18;;;;;;;1.10;0.70;;;;;;;18.46;68.80;101024.91;5112921;28;20421;-55
2021/08/22 09:54:05;;;;;;;1.88;0.85;;;;;;;18.48;68.92;101027.41;5128743;27;20035;-55
2021/08/22 09:56:53;;;;;;;2.20;0.70;;;;;;;18.47;69.20;101029.25;5128574;27;20047;-55
2021/08/22 10:00:00;;;;;;;3.33;0.65;;;;;;;18.50;69.26;101029.91;5129648;27;20042;-55
2021/08/22 10:02:32;;;;;;;2.83;1.00;;;;;;;18.51;69.44;101036.91;5126670;27;20168;-55
2021/08/22 10:05:06;;;;;;;2.20;0.70;;;;;;;18.52;69.29;101046.63;5132907;27;20392;-56
2021/08/22 10:07:44;;;;;;;2.75;0.90;;;;;;;18.52;68.94;101035.91;5133096;27;20076;-56
2021/08/22 10:10:26;;;;;;;2.33;0.70;;;;;;;18.51;69.27;101032.38;5114754;27;20043;-56
2021/08/22 10:12:53;;;;;;;1.90;0.63;;;;;;;18.52;68.92;101039.41;5116751;27;20047;-56
2021/08/22 10:15:20;;;;;;;1.27;0.60;;;;;;;18.52;68.94;101039.41;5133483;27;20042;-56
2021/08/22 10:17:49;;;;;;;3.63;0.65;;;;;;;18.55;69.19;101048.94;5132741;27;20050;-56
2021/08/22 10:20:16;;;;;;;3.67;0.82;;;;;;;18.57;69.05;101044.22;5132473;27;20038;-56
2021/08/22 10:22:41;;;;;;;2.28;0.93;;;;;;;18.59;69.06;101047.53;5115030;27;20043;-56
2021/08/22 10:25:10;;;;;;;1.98;0.75;;;;;;;18.59;69.10;101051.06;5133206;27;20034;-56
2021/08/22 10:27:50;;;;;;;4.55;0.90;;;;;;;18.60;69.32;101058.06;5132742;27;20057;-57
2021/08/22 10:30:23;;;;;;;1.70;0.70;;;;;;;18.62;69.22;101062.41;5132729;27;20027;-56
2021/08/22 10:32:58;;;;;;;1.30;0.60;;;;;;;18.62;68.76;101057.88;5133043;27;20502;-56
2021/08/22 10:35:25;;;;;;;2.37;0.60;;;;;;;18.63;68.96;101062.25;5130131;27;20475;-56
2021/08/22 10:37:51;;;;;;;2.35;0.90;;;;;;;18.64;69.10;101063.03;5111805;28;20464;-56
2021/08/22 10:40:23;;;;;;;2.33;0.57;;;;;;;18.66;69.18;101063.69;5111882;28;20502;-56
2021/08/22 10:42:57;;;;;;;1.63;0.80;;;;;;;18.67;69.26;101071.56;5112706;28;20030;-56
2021/08/22 10:45:43;;;;;;;;;;;;;;;18.69;69.31;101069.53;5113674;28;20504;-56
2021/08/22 10:48:21;;;;;;;1.30;0.60;;;;;;;18.71;68.92;101067.47;5094315;28;19965;-56
2021/08/22 10:50:59;;;;;;;1.10;0.77;;;;;;;18.71;68.68;101074.72;5112486;28;20031;-56
2021/08/22 10:53:25;;;;;;;1.83;0.90;;;;;;;18.75;68.97;101067.13;5094420;28;20517;-56
2021/08/22 10:55:51;;;;;;;2.83;0.77;;;;;;;18.76;68.96;101074.16;5124761;27;20126;-56
2021/08/22 10:58:16;;;;;;;1.10;0.60;;;;;;;18.78;69.11;101077.47;5126288;27;20039;-56
2021/08/22 11:00:43;;;;;;;2.00;0.80;;;;;;;18.78;69.31;101078.31;5132965;27;20039;-56
2021/08/22 11:03:20;;;;;;;3.40;0.95;;;;;;;18.79;69.30;101079.97;5132757;27;20540;-56
2021/08/22 11:05:47;;;;;;;2.75;0.82;;;;;;;18.80;69.42;101081.63;5132833;27;20042;-56
2021/08/22 11:08:23;;;;;;;1.75;0.73;;;;;;;18.83;69.02;101089.31;5131726;27;20478;-56
2021/08/22 11:10:57;;;;;;;2.55;0.80;;;;;;;18.84;69.01;101084.78;5127207;27;20449;-56
2021/08/22 11:13:23;;;;;;;4.45;1.75;;;;;;;18.86;68.71;101087.28;5130994;27;20098;-56
2021/08/22 11:15:49;;;;;;;2.38;0.95;;;;;;;18.87;68.78;101097.81;5132130;27;20038;-56
2021/08/22 11:18:19;;;;;;;5.93;1.13;;;;;;;18.88;68.85;101094.09;5114130;27;20035;-56
2021/08/22 11:20:45;;;;;;;6.10;1.20;;;;;;;18.91;68.85;101103.63;5132622;27;20042;-56
2021/08/22 11:23:19;;;;;;;3.83;0.70;;;;;;;18.92;68.77;101102.63;5132611;27;20039;-56
2021/08/22 11:25:59;;;;;;;4.22;1.10;;;;;;;18.93;68.37;101094.41;5132589;27;20160;-56
2021/08/22 11:28:25;;;;;;;3.35;0.77;;;;;;;18.97;68.49;101097.50;5131766;27;20035;-56
2021/08/22 11:30:51;;;;;;;1.48;0.73;;;;;;;18.98;68.39;101093.84;5131950;27;20494;-57
2021/08/22 11:33:16;;;;;;;1.00;0.80;;;;;;;19.00;68.32;101101.69;5132312;27;20473;-55
2021/08/22 11:35:44;;;;;;;1.80;0.63;;;;;;;19.02;68.28;101107.69;5126627;27;20039;-55
2021/08/22 11:38:12;;;;;;;4.20;0.50;;;;;;;19.03;68.37;101102.13;5112099;28;20401;-56
2021/08/22 11:40:38;;;;;;;2.13;0.70;;;;;;;19.08;67.97;101101.56;5112461;28;20363;-56
2021/08/22 11:43:07;;;;;;;2.10;0.60;;;;;;;19.09;68.27;101097.94;5123925;27;20108;-55
2021/08/22 11:45:42;;;;;;;2.38;0.70;;;;;;;19.11;68.43;101098.59;5132149;28;20458;-55
2021/08/22 11:48:15;;;;;;;1.55;0.70;;;;;;;19.14;68.64;101111.63;5093374;28;20401;-55
2021/08/22 11:50:41;;;;;;;1.77;0.98;;;;;;;19.16;68.80;101116.78;5111696;28;20032;-55
2021/08/22 11:53:08;;;;;;;2.63;0.90;;;;;;;19.18;68.55;101109.38;5117061;28;20034;-55
2021/08/22 11:55:37;;;;;;;2.35;0.90;;;;;;;19.23;68.53;101111.50;5132285;28;20066;-55
2021/08/22 11:58:13;;;;;;;1.73;0.90;;;;;;;19.24;68.68;101113.19;5131798;27;20049;-55
2021/08/22 12:00:42;;;;;;;1.77;0.80;;;;;;;19.26;68.25;101117.31;5132250;28;20067;-56
2021/08/22 12:03:22;;;;;;;1.15;0.70;;;;;;;19.30;67.97;101112.44;5132197;28;20039;-56
2021/08/22 12:05:53;;;;;;;2.05;0.70;;;;;;;19.33;67.26;101118.22;5132057;28;20035;-56
2021/08/22 12:08:19;;;;;;;1.65;0.80;;;;;;;19.38;67.02;101120.38;5132120;28;20031;-56
2021/08/22 12:10:45;;;;;;;1.30;0.57;;;;;;;19.43;66.80;101126.00;5131528;28;20392;-56
2021/08/22 12:13:20;;;;;;;1.95;0.77;;;;;;;19.46;66.46;101133.66;5132037;28;20038;-56
2021/08/22 12:15:47;;;;;;;;;;;;;;;19.53;66.13;101139.13;5132638;28;20043;-57
2021/08/22 12:18:26;;;;;;;0.80;0.60;;;;;;;19.55;66.27;101150.50;5131696;28;19922;-56
2021/08/22 12:21:16;;;;;;;1.60;0.52;;;;;;;19.51;67.27;101151.06;5131953;28;20031;-56
2021/08/22 12:23:45;;;;;;;2.33;0.80;;;;;;;19.52;67.16;101152.72;5114969;27;20123;-56
2021/08/22 12:26:23;;;;;;;0.80;0.63;;;;;;;19.55;66.82;101153.19;5108581;27;20035;-57
2021/08/22 12:28:51;;;;;;;3.15;0.80;;;;;;;19.61;66.54;101150.75;5121690;27;20035;-56
2021/08/22 12:31:17;;;;;;;1.17;0.70;;;;;;;19.64;66.28;101156.56;5115249;28;20081;-56
2021/08/22 12:33:45;;;;;;;1.98;0.80;;;;;;;19.69;65.83;101154.16;5134796;27;20039;-57
2021/08/22 12:36:31;;;;;;;0.90;0.60;;;;;;;19.78;65.85;101156.75;5135846;27;20035;-57
2021/08/22 12:38:59;;;;;;;2.42;0.70;;;;;;;19.81;65.69;101164.41;5100345;27;20496;-56
2021/08/22 12:41:32;;;;;;;1.45;0.77;;;;;;;19.81;65.66;101164.41;5123674;27;20119;-54
2021/08/22 12:44:03;;;;;;;5.22;1.00;;;;;;;19.82;66.28;101160.69;5125608;27;20031;-55
2021/08/22 12:46:31;;;;;;;3.67;1.02;;;;;;;19.79;65.89;101166.44;5132760;27;20384;-57
2021/08/22 12:48:57;;;;;;;2.40;1.08;;;;;;;19.76;65.44;101162.31;5135346;27;20042;-55
2021/08/22 12:51:23;;;;;;;1.83;0.88;;;;;;;19.84;65.43;101166.72;5135575;27;20043;-56
2021/08/22 12:53:50;;;;;;;3.42;0.73;;;;;;;19.87;65.13;101176.22;5134604;27;20035;-56
2021/08/22 12:56:16;;;;;;;1.38;0.68;;;;;;;19.85;64.82;101179.09;5135259;27;20419;-56
2021/08/22 12:58:42;;;;;;;2.83;0.98;;;;;;;19.85;64.75;101173.75;5120423;27;20058;-56
2021/08/22 13:01:08;;;;;;;1.10;0.57;;;;;;;19.89;64.91;101180.38;5114639;27;20485;-56
2021/08/22 13:03:34;;;;;;;3.38;0.80;;;;;;;19.90;64.73;101184.75;5114800;28;20047;-56
2021/08/22 13:06:00;;;;;;;1.38;0.50;;;;;;;19.89;64.39;101177.69;5127369;27;20035;-56
2021/08/22 13:08:26;;;;;;;1.40;0.80;;;;;;;19.88;63.90;101178.72;5120913;27;20047;-56
2021/08/22 13:10:51;;;;;;;1.67;0.60;;;;;;;19.87;63.39;101185.13;5126521;27;20027;-57
2021/08/22 13:13:17;;;;;;;4.78;0.70;;;;;;;19.93;63.97;101179.00;5123032;27;20047;-56
2021/08/22 13:15:44;;;;;;;1.00;0.60;;;;;;;20.03;63.13;101180.56;5122332;27;20063;-56
2021/08/22 13:18:10;;;;;;;1.02;0.90;;;;;;;20.08;63.71;101188.91;5105643;27;20375;-56
2021/08/22 13:20:39;;;;;;;1.55;0.75;;;;;;;20.14;63.50;101180.09;5119534;27;20066;-56
2021/08/22 13:23:05;;;;;;;1.42;0.70;;;;;;;20.20;62.64;101184.69;5124806;27;20027;-57
2021/08/22 13:25:31;;;;;;;1.50;0.70;;;;;;;20.22;63.48;101186.34;5134631;27;20050;-57
2021/08/22 13:27:57;;;;;;;1.00;0.70;;;;;;;20.23;63.40;101186.16;5133974;27;20039;-56
2021/08/22 13:30:23;;;;;;;0.50;0.50;;;;;;;20.27;62.92;101182.09;5131803;27;20110;-56
2021/08/22 13:32:49;;;;;;;0.90;0.55;;;;;;;20.31;62.61;101190.56;5123446;27;20122;-56
2021/08/22 13:35:14;;;;;;;0.93;0.60;;;;;;;20.32;61.19;101190.38;5128425;27;20090;-56
2021/08/22 13:37:40;;;;;;;1.63;0.70;;;;;;;20.33;63.33;101183.16;5112926;27;20028;-56
2021/08/22 13:40:07;;;;;;;1.23;0.88;;;;;;;20.32;63.25;101182.31;5127608;27;20042;-56
2021/08/22 13:42:33;;;;;;;1.27;0.50;;;;;;;20.35;63.51;101183.81;5133523;27;20108;-56
2021/08/22 13:44:58;;;;;;;3.35;0.80;;;;;;;20.39;63.13;101184.22;5129310;27;20062;-56
2021/08/22 13:47:24;;;;;;;1.58;0.63;;;;;;;20.45;63.52;101191.50;5119862;27;20036;-56
2021/08/22 13:49:50;;;;;;;0.60;0.50;;;;;;;20.49;62.27;101189.28;5128642;27;20108;-56
2021/08/22 13:52:15;;;;;;;1.17;0.70;;;;;;;20.53;61.25;101199.44;5124922;27;20038;-56
2021/08/22 13:54:41;;;;;;;1.35;0.65;;;;;;;20.54;62.65;101189.53;5123187;27;20515;-56
2021/08/22 13:57:07;;;;;;;1.83;0.60;;;;;;;20.55;63.03;101191.19;5119971;27;20059;-56
2021/08/22 13:59:32;;;;;;;1.25;0.68;;;;;;;20.55;62.70;101191.19;5133728;27;20038;-56
2021/08/22 14:01:59;;;;;;;1.20;0.70;;;;;;;20.56;62.82;101187.50;5125105;27;20027;-56
2021/08/22 14:04:25;;;;;;;1.17;0.63;;;;;;;20.60;62.72;101196.84;5126246;27;20026;-56
2021/08/22 14:06:50;;;;;;;1.40;0.60;;;;;;;20.62;62.87;101189.41;5120984;27;20042;-56
2021/08/22 14:09:16;;;;;;;1.20;0.65;;;;;;;20.63;62.69;101193.75;5132778;27;20031;-56
2021/08/22 14:11:42;;;;;;;2.70;0.60;;;;;;;20.65;62.50;101186.34;5118373;27;20031;-56
2021/08/22 14:14:07;;;;;;;2.35;0.75;;;;;;;20.70;62.59;101185.75;5125778;27;20035;-56
2021/08/22 14:16:33;;;;;;;1.52;0.70;;;;;;;20.71;62.51;101190.09;5133593;27;20023;-56
2021/08/22 14:18:59;;;;;;;1.35;0.57;;;;;;;20.74;62.49;101205.00;5133330;27;20039;-56
2021/08/22 14:21:26;;;;;;;2.55;0.60;;;;;;;20.75;62.62;101195.94;5114764;27;20065;-56
2021/08/22 14:23:52;;;;;;;0.85;0.60;;;;;;;20.77;62.00;101201.91;5133265;27;20053;-56
2021/08/22 14:26:18;;;;;;;2.15;0.60;;;;;;;20.79;62.00;101197.19;5131923;27;20121;-56
2021/08/22 14:28:44;;;;;;;1.00;0.70;;;;;;;20.80;61.75;101191.63;5112127;27;20036;-57
2021/08/22 14:31:10;;;;;;;1.38;0.77;;;;;;;20.77;61.84;101196.53;5125212;27;20073;-56
2021/08/22 14:33:36;;;;;;;3.55;0.65;;;;;;;20.78;62.60;101204.44;5111406;28;20079;-56
2021/08/22 14:36:03;;;;;;;1.27;0.60;;;;;;;20.80;61.69;101202.38;5118684;27;20027;-56
2021/08/22 14:38:29;;;;;;;0.65;0.60;;;;;;;20.78;61.21;101208.97;5133340;27;20385;-56
2021/08/22 14:40:57;;;;;;;1.45;0.50;;;;;;;20.73;60.99;101198.81;5114686;27;20035;-56
2021/08/22 14:43:24;;;;;;;1.40;0.73;;;;;;;20.74;61.19;101199.63;5132611;27;20062;-56
2021/08/22 14:45:50;;;;;;;1.85;1.15;;;;;;;20.70;60.44;101200.00;5133090;27;20035;-56
2021/08/22 14:48:16;;;;;;;2.00;0.73;;;;;;;20.70;60.91;101205.38;5131813;27;20031;-58
2021/08/22 14:50:42;;;;;;;1.23;0.70;;;;;;;20.74;60.64;101205.00;5132539;27;20053;-56
2021/08/22 14:53:08;;;;;;;1.38;0.70;;;;;;;20.70;60.28;101205.38;5132814;27;20390;-56
2021/08/22 14:55:34;;;;;;;1.42;0.68;;;;;;;20.72;59.92;101202.50;5132615;27;20613;-56
2021/08/22 14:58:00;;;;;;;1.83;0.60;;;;;;;20.74;59.49;101210.38;5132081;27;20043;-56
2021/08/22 15:00:26;;;;;;;1.20;0.63;;;;;;;20.76;59.19;101211.00;5132201;27;20031;-56
2021/08/22 15:02:52;;;;;;;1.17;0.60;;;;;;;20.80;59.53;101213.13;5132326;27;20075;-56
2021/08/22 15:05:18;;;;;;;1.92;0.50;;;;;;;20.86;59.72;101214.22;5126709;27;20034;-56
2021/08/22 15:07:44;;;;;;;2.05;0.70;;;;;;;20.86;59.96;101210.69;5132554;27;20039;-56
2021/08/22 15:10:10;;;;;;;0.98;0.57;;;;;;;20.87;60.04;101212.34;5132593;27;20071;-57
2021/08/22 15:12:37;;;;;;;0.68;0.43;;;;;;;20.86;59.30;101219.59;5127011;27;20043;-56
2021/08/22 15:15:05;;;;;;;1.90;0.82;;;;;;;20.80;59.78;101215.81;5126371;27;20035;-56
2021/08/22 15:17:31;;;;;;;1.30;0.70;;;;;;;20.81;59.48;101212.09;5129071;27;20035;-56
2021/08/22 15:19:57;;;;;;;1.20;0.80;;;;;;;20.79;59.04;101216.00;5118431;27;20619;-56
2021/08/22 15:22:25;;;;;;;1.63;0.75;;;;;;;20.79;59.53;101207.94;5130849;27;20035;-57
2021/08/22 15:24:50;;;;;;;1.00;0.60;;;;;;;20.78;59.47;101207.13;5131016;27;20031;-56
2021/08/22 15:27:17;;;;;;;0.75;0.50;;;;;;;20.81;59.63;101211.28;5111871;28;20427;-56
2021/08/22 15:29:44;;;;;;;1.45;0.55;;;;;;;20.81;59.73;101209.41;5111786;28;20028;-56
2021/08/22 15:32:10;;;;;;;1.25;0.75;;;;;;;20.84;60.25;101216.25;5120172;27;20031;-56
2021/08/22 15:34:37;;;;;;;1.48;0.60;;;;;;;20.85;60.62;101211.72;5131787;27;20043;-56
2021/08/22 15:37:04;;;;;;;1.13;0.60;;;;;;;20.89;60.56;101221.03;5130533;27;20505;-55
2021/08/22 15:39:30;;;;;;;2.67;0.73;;;;;;;20.94;60.76;101211.38;5127812;27;20678;-56
2021/08/22 15:41:56;;;;;;;3.65;0.63;;;;;;;20.96;61.00;101221.94;5132371;27;20121;-56
2021/08/22 15:44:22;;;;;;;1.63;0.60;;;;;;;20.99;60.98;101223.44;5132222;27;20038;-56
2021/08/22 15:46:48;;;;;;;1.35;0.60;;;;;;;20.97;60.88;101223.63;5120717;27;20428;-55
2021/08/22 15:49:13;;;;;;;5.05;0.82;;;;;;;20.99;60.28;101216.19;5110826;28;20039;-56
2021/08/22 15:51:39;;;;;;;1.85;0.70;;;;;;;21.04;60.60;101219.13;5111060;28;20031;-56
2021/08/22 15:54:10;;;;;;;2.60;0.60;;;;;;;21.07;60.23;101221.41;5110824;28;20378;-56
2021/08/22 15:56:38;;;;;;;0.50;0.50;;;;;;;21.07;60.15;101225.97;5109907;28;20393;-55
2021/08/22 15:59:04;;;;;;;2.85;0.80;;;;;;;21.11;60.04;101219.19;5129182;27;20052;-55
2021/08/22 16:01:30;;;;;;;3.67;0.57;;;;;;;21.12;60.21;101218.13;5133262;27;20050;-56
2021/08/22 16:03:58;;;;;;;0.55;0.40;;;;;;;21.19;60.25;101224.41;5133842;27;20043;-55
2021/08/22 16:06:25;;;;;;;0.80;0.40;;;;;;;21.24;59.92;101223.81;5134208;27;20042;-56
2021/08/22 16:08:51;;;;;;;1.08;0.47;;;;;;;21.26;59.76;101234.38;5115407;27;20023;-55
2021/08/22 16:11:17;;;;;;;1.70;0.50;;;;;;;21.24;59.31;101231.03;5133535;27;20039;-56
2021/08/22 16:13:42;;;;;;;1.33;0.52;;;;;;;21.25;59.40;101224.63;5134015;27;20106;-55
2021/08/22 16:16:11;;;;;;;0.85;0.43;;;;;;;21.30;59.74;101230.25;5134162;27;20043;-55
2021/08/22 16:18:37;;;;;;;1.02;0.50;;;;;;;21.36;59.43;101231.34;5135577;27;20467;-56
2021/08/22 16:21:03;;;;;;;1.75;0.63;;;;;;;21.37;59.98;101231.16;5134236;27;20023;-56
2021/08/22 16:23:30;;;;;;;1.95;0.75;;;;;;;21.34;60.36;101233.38;5135199;27;20045;-56
2021/08/22 16:25:56;;;;;;;2.13;0.70;;;;;;;21.34;59.84;101228.84;5135323;27;20096;-55
2021/08/22 16:28:21;;;;;;;0.77;0.50;;;;;;;21.31;59.41;101226.53;5135755;27;20027;-55
2021/08/22 16:30:48;;;;;;;2.70;0.52;;;;;;;21.32;59.87;101222.84;5130273;27;20031;-55
2021/08/22 16:33:14;;;;;;;1.42;0.60;;;;;;;21.33;59.91;101227.16;5117276;27;20032;-56
2021/08/22 16:35:40;;;;;;;1.20;0.55;;;;;;;21.35;59.85;101226.97;5114932;28;20401;-57
2021/08/22 16:38:05;;;;;;;0.52;0.52;;;;;;;21.37;59.68;101228.47;5114225;28;20032;-55
2021/08/22 16:40:34;;;;;;;1.88;0.57;;;;;;;21.39;59.78;101221.00;5114257;28;20482;-55
2021/08/22 16:43:00;;;;;;;0.70;0.65;;;;;;;21.40;59.88;101220.00;5114710;28;20036;-56
2021/08/22 16:45:26;;;;;;;2.28;0.73;;;;;;;21.42;59.61;101217.91;5096785;27;20143;-56
2021/08/22 16:47:51;;;;;;;1.05;0.73;;;;;;;21.50;59.92;101211.53;5133537;27;20038;-56
2021/08/22 16:50:17;;;;;;;1.17;0.60;;;;;;;21.54;59.84;101220.91;5134973;27;20031;-56
2021/08/22 16:52:43;;;;;;;2.17;0.70;;;;;;;21.55;60.05;101225.22;5134681;27;20397;-56
2021/08/22 16:55:09;;;;;;;1.30;0.68;;;;;;;21.59;60.19;101222.16;5134600;27;20108;-56
2021/08/22 16:57:35;;;;;;;1.55;0.50;;;;;;;21.59;59.95;101220.28;5133869;27;20051;-55
2021/08/22 17:00:01;;;;;;;1.08;0.80;;;;;;;21.60;60.15;101221.94;5134628;27;20108;-56
2021/08/22 17:02:31;;;;;;;0.95;0.50;;;;;;;21.61;60.27;101230.84;5135111;27;20508;-57
2021/08/22 17:04:57;;;;;;;2.90;0.80;;;;;;;21.64;60.09;101227.75;5134871;27;20080;-56
2021/08/22 17:07:23;;;;;;;1.67;0.70;;;;;;;21.62;60.32;101233.34;5134220;27;20047;-55
2021/08/22 17:09:48;;;;;;;2.35;0.60;;;;;;;21.65;60.58;101227.56;5134256;27;20122;-56
2021/08/22 17:12:14;;;;;;;2.25;0.57;;;;;;;21.62;60.21;101233.34;5134544;27;20066;-55
2021/08/22 17:14:40;;;;;;;3.03;0.80;;;;;;;21.60;60.84;101230.00;5116290;27;20035;-55
2021/08/22 17:17:06;;;;;;;0.60;0.50;;;;;;;21.59;61.02;101238.28;5135047;27;20142;-55
2021/08/22 17:19:33;;;;;;;0.95;0.60;;;;;;;21.56;61.05;101239.53;5130463;27;20042;-56
2021/08/22 17:22:02;;;;;;;1.50;0.52;;;;;;;21.54;60.83;101233.50;5132354;27;20110;-56
2021/08/22 17:24:28;;;;;;;0.98;0.60;;;;;;;21.55;61.10;101244.06;5123243;27;20039;-56
2021/08/22 17:26:54;;;;;;;2.15;0.73;;;;;;;21.52;61.10;101241.78;5114218;27;20476;-56
2021/08/22 17:29:19;;;;;;;0.98;0.85;;;;;;;21.52;60.89;101246.31;5134125;27;20035;-55
2021/08/22 17:31:45;;;;;;;1.73;0.60;;;;;;;21.52;61.22;101246.31;5125655;27;20102;-56
2021/08/22 17:34:11;;;;;;;1.65;0.70;;;;;;;21.52;61.30;101254.38;5132848;27;20130;-56
2021/08/22 17:36:37;;;;;;;1.63;0.80;;;;;;;21.54;60.92;101257.72;5129465;27;20031;-56
2021/08/22 17:39:02;;;;;;;0.95;0.63;;;;;;;21.54;61.05;101258.56;5112538;28;20089;-56
2021/08/22 17:41:29;;;;;;;3.13;0.82;;;;;;;21.55;61.10;101262.06;5112066;28;20039;-56
2021/08/22 17:43:54;;;;;;;1.13;0.60;;;;;;;21.51;61.69;101260.78;5112109;28;20043;-56
2021/08/22 17:46:20;;;;;;;2.38;0.63;;;;;;;21.48;61.72;101259.34;5115787;27;20023;-55
2021/08/22 17:48:46;;;;;;;1.25;0.60;;;;;;;21.47;61.43;101260.34;5130782;27;20381;-56
2021/08/22 17:51:13;;;;;;;1.13;0.60;;;;;;;21.47;61.68;101265.72;5128842;27;20496;-55
2021/08/22 17:53:39;;;;;;;0.95;0.73;;;;;;;21.49;61.52;101266.38;5113149;28;20039;-55
2021/08/22 17:56:05;;;;;;;0.95;0.60;;;;;;;21.49;61.63;101269.06;5113726;28;20039;-55
2021/08/22 17:58:31;;;;;;;0.85;0.50;;;;;;;21.52;61.71;101257.91;5128868;27;20044;-56
2021/08/22 18:00:57;;;;;;;11.38;1.98;;;;;;;21.58;61.93;101264.34;5133915;27;20035;-57
2021/08/22 18:03:23;;;;;;;1.20;0.70;;;;;;;21.56;62.01;101264.53;5132131;27;20031;-57
2021/08/22 18:05:49;;;;;;;2.58;1.10;;;;;;;21.58;61.62;101264.34;5133486;27;20504;-58
2021/08/22 18:08:17;;;;;;;1.85;0.88;;;;;;;21.56;61.71;101269.91;5129925;27;20507;-57
2021/08/22 18:10:43;;;;;;;4.47;0.90;;;;;;;21.56;61.93;101267.22;5131019;27;20079;-58
2021/08/22 18:13:08;;;;;;;2.03;0.80;;;;;;;21.58;61.83;101276.97;5131711;27;20435;-57
2021/08/22 18:15:34;;;;;;;1.70;0.80;;;;;;;21.60;61.89;101275.75;5115035;27;20031;-58
2021/08/22 18:18:00;;;;;;;8.68;1.80;;;;;;;21.89;61.07;101275.72;5132916;27;20027;-57
2021/08/22 18:20:25;;;;;;;4.00;0.73;;;;;;;21.93;60.92;101288.56;5132979;27;20031;-58
2021/08/22 18:22:51;;;;;;;1.67;1.00;;;;;;;21.81;61.17;101295.56;5133114;27;20035;-58
2021/08/22 18:25:17;;;;;;;4.15;0.95;;;;;;;21.67;61.55;101287.41;5115727;27;20038;-57
2021/08/22 18:27:45;;;;;;;2.38;0.90;;;;;;;21.62;62.14;101292.53;5095242;27;20043;-58
2021/08/22 18:30:13;;;;;;;2.85;0.90;;;;;;;21.60;62.33;101304.50;5133285;27;20153;-58
2021/08/22 18:32:39;;;;;;;2.42;1.23;;;;;;;21.55;62.78;101305.09;5119975;27;20035;-57
2021/08/22 18:35:06;;;;;;;2.55;1.02;;;;;;;21.52;62.76;101308.16;5112182;28;20777;-64
2021/08/22 18:37:32;;;;;;;6.93;1.15;;;;;;;21.53;62.52;101307.16;5117650;27;20027;-63
2021/08/22 18:39:58;;;;;;;2.35;1.23;;;;;;;21.51;62.78;101317.28;5132162;27;20402;-58
2021/08/22 18:42:24;;;;;;;1.10;0.80;;;;;;;21.52;62.61;101309.00;5131673;27;20460;-58
2021/08/22 18:44:50;;;;;;;5.57;1.00;;;;;;;21.54;62.91;101322.25;5132351;27;20034;-60
2021/08/22 18:47:16;;;;;;;2.67;0.77;;;;;;;21.51;62.84;101320.81;5125713;27;20032;-61
2021/08/22 18:49:42;;;;;;;1.48;0.73;;;;;;;21.49;62.78;101317.47;5110771;28;20068;-60
2021/08/22 18:52:07;;;;;;;2.92;1.00;;;;;;;21.52;62.54;101318.94;5111177;28;20071;-60
2021/08/22 18:54:33;;;;;;;2.47;0.90;;;;;;;21.48;62.85;101314.97;5111242;28;20043;-60
2021/08/22 18:56:59;;;;;;;1.45;0.95;;;;;;;21.46;62.82;101320.56;5114212;27;20067;-60
2021/08/22 18:59:25;;;;;;;0.73;0.70;;;;;;;21.46;63.16;101327.78;5131661;27;20035;-60
2021/08/22 19:01:52;;;;;;;3.50;1.02;;;;;;;21.44;63.28;101330.66;5130579;27;20515;-60
2021/08/22 19:04:17;;;;;;;2.15;0.90;;;;;;;;;;5131635;27;20392;-59
2021/08/22 19:06:43;;;;;;;4.20;0.80;;;;;;;21.44;63.04;101342.25;5115655;27;20035;-60
2021/08/22 19:09:09;;;;;;;2.28;0.70;;;;;;;21.39;63.44;101342.00;5124013;27;20370;-60
2021/08/22 19:11:35;;;;;;;1.70;0.90;;;;;;;21.38;63.08;101348.44;5131971;27;20038;-60
2021/08/22 19:14:01;;;;;;;1.40;0.90;;;;;;;21.37;63.19;101345.94;5131551;27;20053;-60
2021/08/22 19:16:27;;;;;;;1.92;0.90;;;;;;;21.35;63.28;101348.81;5132172;27;20027;-60
2021/08/22 19:18:53;;;;;;;3.08;0.75;;;;;;;21.34;63.17;101354.38;5115118;27;20035;-60
2021/08/22 19:21:19;;;;;;;3.10;0.90;;;;;;;21.33;63.29;101361.63;5131093;27;20027;-60
2021/08/22 19:23:46;;;;;;;2.78;0.80;;;;;;;21.35;63.40;101364.09;5126047;27;20039;-59
2021/08/22 19:26:12;;;;;;;1.38;0.85;;;;;;;21.31;63.50;101375.25;5122803;27;20031;-59
2021/08/22 19:28:38;;;;;;;3.28;1.35;;;;;;;21.32;63.45;101376.91;5119651;27;20032;-59
2021/08/22 19:31:05;;;;;;;2.17;1.00;;;;;;;21.33;63.03;101391.19;5111230;28;20035;-59
2021/08/22 19:33:31;;;;;;;2.40;0.80;;;;;;;21.32;63.14;101384.97;5126756;27;20039;-59